createdAt,value
2018-08-06T00:00:03.318Z,1015.74
2018-08-06T00:01:11.973Z,1015.71
2018-08-06T00:02:20.902Z,1015.73
2018-08-06T00:03:29.558Z,1015.75
2018-08-06T00:04:38.195Z,1015.75
2018-08-06T00:05:46.844Z,1015.75
2018-08-06T00:06:55.489Z,1015.71
2018-08-06T00:08:04.143Z,1015.73
2018-08-06T00:09:13.053Z,1015.72
2018-08-06T00:10:21.696Z,1015.69
2018-08-06T00:11:30.346Z,1015.71
2018-08-06T00:12:38.994Z,1015.69
2018-08-06T00:13:47.923Z,1015.65
2018-08-06T00:14:56.569Z,1015.64
2018-08-06T00:16:05.228Z,1015.62
2018-08-06T00:17:13.851Z,1015.6
2018-08-06T00:18:22.505Z,1015.6
2018-08-06T00:19:31.147Z,1015.62
2018-08-06T00:20:39.799Z,1015.6
2018-08-06T00:21:48.436Z,1015.6
2018-08-06T00:22:57.357Z,1015.59
2018-08-06T00:24:06.002Z,1015.58
2018-08-06T00:25:14.648Z,1015.61
2018-08-06T00:26:23.287Z,1015.54
2018-08-06T00:27:31.934Z,1015.55
2018-08-06T00:28:40.585Z,1015.52
2018-08-06T00:29:49.226Z,1015.53
2018-08-06T00:30:57.869Z,1015.53
2018-08-06T00:32:06.527Z,1015.5
2018-08-06T00:33:15.168Z,1015.48
2018-08-06T00:34:23.817Z,1015.47
2018-08-06T00:35:32.455Z,1015.49
2018-08-06T00:36:41.109Z,1015.47
2018-08-06T00:37:50.017Z,1015.45
2018-08-06T00:38:58.930Z,1015.44
2018-08-06T00:40:07.568Z,1015.42
2018-08-06T00:41:16.770Z,1015.41
2018-08-06T00:42:25.414Z,1015.39
2018-08-06T00:43:34.326Z,1015.36
2018-08-06T00:44:42.957Z,1015.4
2018-08-06T00:45:51.909Z,1015.41
2018-08-06T00:47:00.560Z,1015.38
2018-08-06T00:48:09.208Z,1015.41
2018-08-06T00:49:17.863Z,1015.36
2018-08-06T00:50:26.760Z,1015.34
2018-08-06T00:51:35.417Z,1015.32
2018-08-06T00:52:44.060Z,1015.29
2018-08-06T00:53:52.976Z,1015.28
2018-08-06T00:55:01.877Z,1015.3
2018-08-06T00:56:10.532Z,1015.3
2018-08-06T00:57:19.172Z,1015.31
2018-08-06T00:58:27.832Z,1015.31
2018-08-06T00:59:36.470Z,1015.28
2018-08-06T01:00:45.388Z,1015.27
2018-08-06T01:01:54.570Z,1015.2
2018-08-06T01:03:03.224Z,1015.21
2018-08-06T01:04:11.866Z,1015.22
2018-08-06T01:05:20.509Z,1015.18
2018-08-06T01:06:29.157Z,1015.19
2018-08-06T01:07:37.799Z,1015.18
2018-08-06T01:08:46.454Z,1015.16
2018-08-06T01:09:55.356Z,1015.16
2018-08-06T01:11:04.006Z,1015.14
2018-08-06T01:12:12.904Z,1015.11
2018-08-06T01:13:21.559Z,1015.1
2018-08-06T01:14:30.203Z,1015.1
2018-08-06T01:15:38.853Z,1015.07
2018-08-06T01:16:47.490Z,1015.04
2018-08-06T01:17:56.146Z,1015.07
2018-08-06T01:19:04.790Z,1015.04
2018-08-06T01:20:13.700Z,1015.05
2018-08-06T01:21:22.599Z,1015.01
2018-08-06T01:22:31.246Z,1015.03
2018-08-06T01:23:40.167Z,1015.05
2018-08-06T01:24:48.820Z,1015.05
2018-08-06T01:25:57.468Z,1015.03
2018-08-06T01:27:06.104Z,1015.03
2018-08-06T01:28:14.750Z,1015.02
2018-08-06T01:29:23.395Z,1015.01
2018-08-06T01:30:32.045Z,1015
2018-08-06T01:31:40.687Z,1015
2018-08-06T01:32:49.332Z,1015
2018-08-06T01:33:57.978Z,1015.03
2018-08-06T01:35:06.628Z,1015
2018-08-06T01:36:15.270Z,1015.01
2018-08-06T01:37:24.180Z,1015.01
2018-08-06T01:38:32.824Z,1014.98
2018-08-06T01:39:41.474Z,1014.96
2018-08-06T01:40:50.120Z,1014.92
2018-08-06T01:41:58.766Z,1014.94
2018-08-06T01:43:07.407Z,1014.97
2018-08-06T01:44:16.051Z,1014.98
2018-08-06T01:45:24.698Z,1014.97
2018-08-06T01:46:33.344Z,1014.95
2018-08-06T01:47:41.990Z,1014.93
2018-08-06T01:48:50.629Z,1014.93
2018-08-06T01:49:59.289Z,1014.88
2018-08-06T01:51:07.922Z,1014.84
2018-08-06T01:52:16.567Z,1014.85
2018-08-06T01:53:25.210Z,1014.85
2018-08-06T01:54:33.859Z,1014.86
2018-08-06T01:55:42.503Z,1014.8
2018-08-06T01:56:51.149Z,1014.8
2018-08-06T01:57:59.790Z,1014.8
2018-08-06T01:59:08.436Z,1014.78
2018-08-06T02:00:17.084Z,1014.76
2018-08-06T02:01:25.734Z,1014.79
2018-08-06T02:02:34.382Z,1014.75
2018-08-06T02:03:43.022Z,1014.74
2018-08-06T02:04:51.937Z,1014.77
2018-08-06T02:06:00.581Z,1014.72
2018-08-06T02:07:09.235Z,1014.72
2018-08-06T02:08:17.878Z,1014.69
2018-08-06T02:09:26.522Z,1014.69
2018-08-06T02:10:35.432Z,1014.65
2018-08-06T02:11:44.085Z,1014.65
2018-08-06T02:12:52.723Z,1014.62
2018-08-06T02:14:01.642Z,1014.58
2018-08-06T02:15:10.287Z,1014.58
2018-08-06T02:16:19.203Z,1014.59
2018-08-06T02:17:27.846Z,1014.57
2018-08-06T02:18:36.495Z,1014.59
2018-08-06T02:19:45.397Z,1014.56
2018-08-06T02:20:54.035Z,1014.57
2018-08-06T02:22:02.686Z,1014.58
2018-08-06T02:23:11.333Z,1014.57
2018-08-06T02:24:19.977Z,1014.55
2018-08-06T02:25:28.617Z,1014.52
2018-08-06T02:26:37.270Z,1014.52
2018-08-06T02:27:45.911Z,1014.51
2018-08-06T02:28:54.563Z,1014.52
2018-08-06T02:30:03.199Z,1014.48
2018-08-06T02:31:12.124Z,1014.49
2018-08-06T02:32:21.029Z,1014.48
2018-08-06T02:33:29.944Z,1014.52
2018-08-06T02:34:38.585Z,1014.47
2018-08-06T02:35:47.236Z,1014.5
2018-08-06T02:36:55.894Z,1014.47
2018-08-06T02:38:05.073Z,1014.45
2018-08-06T02:39:13.722Z,1014.46
2018-08-06T02:40:22.363Z,1014.45
2018-08-06T02:41:31.559Z,1014.39
2018-08-06T02:42:40.208Z,1014.41
2018-08-06T02:43:48.853Z,1014.42
2018-08-06T02:44:57.490Z,1014.34
2018-08-06T02:46:06.690Z,1014.34
2018-08-06T02:47:15.331Z,1014.34
2018-08-06T02:48:23.986Z,1014.33
2018-08-06T02:49:32.619Z,1014.31
2018-08-06T02:50:41.533Z,1014.3
2018-08-06T02:51:50.174Z,1014.33
2018-08-06T02:52:59.356Z,1014.32
2018-08-06T02:54:07.998Z,1014.31
2018-08-06T02:55:16.638Z,1014.31
2018-08-06T02:56:25.543Z,1014.29
2018-08-06T02:57:34.187Z,1014.31
2018-08-06T02:58:42.839Z,1014.34
2018-08-06T02:59:51.484Z,1014.36
2018-08-06T03:01:00.134Z,1014.35
2018-08-06T03:02:08.770Z,1014.33
2018-08-06T03:03:17.423Z,1014.3
2018-08-06T03:04:26.066Z,1014.31
2018-08-06T03:05:34.715Z,1014.27
2018-08-06T03:06:43.351Z,1014.26
2018-08-06T03:07:52.002Z,1014.25
2018-08-06T03:09:00.645Z,1014.23
2018-08-06T03:10:09.399Z,1014.22
2018-08-06T03:11:18.588Z,1014.21
2018-08-06T03:12:27.501Z,1014.21
2018-08-06T03:13:36.152Z,1014.16
2018-08-06T03:14:44.795Z,1014.19
2018-08-06T03:15:53.442Z,1014.18
2018-08-06T03:17:02.122Z,1014.18
2018-08-06T03:18:11.109Z,1014.16
2018-08-06T03:19:19.748Z,1014.21
2018-08-06T03:20:28.404Z,1014.17
2018-08-06T03:21:37.041Z,1014.13
2018-08-06T03:22:45.691Z,1014.12
2018-08-06T03:23:54.330Z,1014.14
2018-08-06T03:25:02.984Z,1014.14
2018-08-06T03:26:11.624Z,1014.13
2018-08-06T03:27:20.536Z,1014.22
2018-08-06T03:28:29.438Z,1014.22
2018-08-06T03:29:38.143Z,1014.21
2018-08-06T03:30:46.753Z,1014.29
2018-08-06T03:31:55.644Z,1014.27
2018-08-06T03:33:04.291Z,1014.25
2018-08-06T03:34:12.935Z,1014.25
2018-08-06T03:35:21.583Z,1014.25
2018-08-06T03:36:30.227Z,1014.23
2018-08-06T03:37:38.871Z,1014.25
2018-08-06T03:38:47.513Z,1014.26
2018-08-06T03:39:56.160Z,1014.22
2018-08-06T03:41:04.804Z,1014.2
2018-08-06T03:42:13.451Z,1014.21
2018-08-06T03:43:22.093Z,1014.18
2018-08-06T03:44:30.748Z,1014.14
2018-08-06T03:45:39.649Z,1014.16
2018-08-06T03:46:48.294Z,1014.13
2018-08-06T03:47:56.935Z,1014.13
2018-08-06T03:49:05.582Z,1014.14
2018-08-06T03:50:14.227Z,1014.12
2018-08-06T03:51:22.872Z,1014.13
2018-08-06T03:52:31.521Z,1014.14
2018-08-06T03:53:40.861Z,1014.14
2018-08-06T03:54:49.507Z,1014.13
2018-08-06T03:55:58.151Z,1014.14
2018-08-06T03:57:06.799Z,1014.12
2018-08-06T03:58:15.438Z,1014.07
2018-08-06T03:59:24.081Z,1014.09
2018-08-06T04:00:32.724Z,1014.05
2018-08-06T04:01:41.372Z,1014.02
2018-08-06T04:02:50.010Z,1014.03
2018-08-06T04:03:58.657Z,1013.98
2018-08-06T04:05:07.299Z,1013.93
2018-08-06T04:06:15.949Z,1013.93
2018-08-06T04:07:24.854Z,1013.87
2018-08-06T04:08:33.497Z,1013.94
2018-08-06T04:09:42.140Z,1013.89
2018-08-06T04:10:50.782Z,1013.87
2018-08-06T04:11:59.429Z,1013.88
2018-08-06T04:13:08.077Z,1013.87
2018-08-06T04:14:16.721Z,1013.87
2018-08-06T04:15:25.365Z,1013.88
2018-08-06T04:16:34.014Z,1013.87
2018-08-06T04:17:42.659Z,1013.87
2018-08-06T04:18:51.309Z,1013.86
2018-08-06T04:19:59.951Z,1013.87
2018-08-06T04:21:08.599Z,1013.89
2018-08-06T04:22:17.240Z,1013.92
2018-08-06T04:23:26.146Z,1013.91
2018-08-06T04:24:35.059Z,1013.93
2018-08-06T04:25:43.700Z,1013.95
2018-08-06T04:26:52.343Z,1013.93
2018-08-06T04:28:00.983Z,1013.93
2018-08-06T04:29:09.625Z,1013.88
2018-08-06T04:30:18.272Z,1013.92
2018-08-06T04:31:26.919Z,1013.94
2018-08-06T04:32:35.568Z,1013.95
2018-08-06T04:33:44.559Z,1013.95
2018-08-06T04:34:53.208Z,1013.95
2018-08-06T04:36:01.856Z,1013.95
2018-08-06T04:37:10.500Z,1013.94
2018-08-06T04:38:19.141Z,1013.91
2018-08-06T04:39:27.790Z,1013.94
2018-08-06T04:40:36.432Z,1013.9
2018-08-06T04:41:45.079Z,1013.9
2018-08-06T04:42:53.719Z,1013.89
2018-08-06T04:44:02.365Z,1013.88
2018-08-06T04:45:11.011Z,1013.84
2018-08-06T04:46:19.923Z,1013.85
2018-08-06T04:47:28.564Z,1013.86
2018-08-06T04:48:37.469Z,1013.87
2018-08-06T04:49:46.116Z,1013.86
2018-08-06T04:50:54.757Z,1013.84
2018-08-06T04:52:03.405Z,1013.84
2018-08-06T04:53:12.048Z,1013.85
2018-08-06T04:54:20.691Z,1013.81
2018-08-06T04:55:29.333Z,1013.88
2018-08-06T04:56:37.980Z,1013.85
2018-08-06T04:57:46.622Z,1013.84
2018-08-06T04:58:55.268Z,1013.82
2018-08-06T05:00:03.910Z,1013.85
2018-08-06T05:01:12.561Z,1013.83
2018-08-06T05:02:21.202Z,1013.85
2018-08-06T05:03:29.847Z,1013.87
2018-08-06T05:04:38.486Z,1013.88
2018-08-06T05:05:47.128Z,1013.86
2018-08-06T05:06:55.802Z,1013.86
2018-08-06T05:08:04.423Z,1013.86
2018-08-06T05:09:13.594Z,1013.82
2018-08-06T05:10:22.233Z,1013.81
2018-08-06T05:11:30.881Z,1013.82
2018-08-06T05:12:39.798Z,1013.79
2018-08-06T05:13:48.442Z,1013.85
2018-08-06T05:14:57.081Z,1013.84
2018-08-06T05:16:05.730Z,1013.82
2018-08-06T05:17:14.370Z,1013.84
2018-08-06T05:18:23.016Z,1013.78
2018-08-06T05:19:31.715Z,1013.77
2018-08-06T05:20:40.304Z,1013.81
2018-08-06T05:21:48.949Z,1013.77
2018-08-06T05:22:57.597Z,1013.83
2018-08-06T05:24:06.249Z,1013.82
2018-08-06T05:25:14.893Z,1013.8
2018-08-06T05:26:23.542Z,1013.84
2018-08-06T05:27:32.183Z,1013.83
2018-08-06T05:28:40.836Z,1013.8
2018-08-06T05:29:49.473Z,1013.76
2018-08-06T05:30:58.124Z,1013.73
2018-08-06T05:32:06.764Z,1013.72
2018-08-06T05:33:15.689Z,1013.71
2018-08-06T05:34:24.326Z,1013.71
2018-08-06T05:35:32.973Z,1013.72
2018-08-06T05:36:41.618Z,1013.66
2018-08-06T05:37:50.530Z,1013.66
2018-08-06T05:38:59.173Z,1013.69
2018-08-06T05:40:07.881Z,1013.68
2018-08-06T05:41:16.483Z,1013.7
2018-08-06T05:42:25.389Z,1013.69
2018-08-06T05:43:34.308Z,1013.64
2018-08-06T05:44:42.949Z,1013.64
2018-08-06T05:45:51.601Z,1013.62
2018-08-06T05:47:00.238Z,1013.63
2018-08-06T05:48:08.921Z,1013.6
2018-08-06T05:49:17.806Z,1013.61
2018-08-06T05:50:26.456Z,1013.62
2018-08-06T05:51:35.093Z,1013.63
2018-08-06T05:52:43.748Z,1013.66
2018-08-06T05:53:52.662Z,1013.69
2018-08-06T05:55:01.313Z,1013.71
2018-08-06T05:56:09.951Z,1013.74
2018-08-06T05:57:18.595Z,1013.75
2018-08-06T05:58:27.246Z,1013.76
2018-08-06T05:59:35.893Z,1013.72
2018-08-06T06:00:44.817Z,1013.78
2018-08-06T06:01:53.454Z,1013.76
2018-08-06T06:03:02.101Z,1013.79
2018-08-06T06:04:10.741Z,1013.81
2018-08-06T06:05:19.399Z,1013.8
2018-08-06T06:06:28.031Z,1013.81
2018-08-06T06:07:36.684Z,1013.83
2018-08-06T06:08:45.325Z,1013.8
2018-08-06T06:09:53.980Z,1013.82
2018-08-06T06:11:02.878Z,1013.8
2018-08-06T06:12:11.526Z,1013.78
2018-08-06T06:13:20.171Z,1013.77
2018-08-06T06:14:28.828Z,1013.74
2018-08-06T06:15:37.475Z,1013.76
2018-08-06T06:16:46.116Z,1013.73
2018-08-06T06:17:54.767Z,1013.79
2018-08-06T06:19:03.431Z,1013.76
2018-08-06T06:20:12.070Z,1013.75
2018-08-06T06:21:20.968Z,1013.73
2018-08-06T06:22:29.616Z,1013.69
2018-08-06T06:23:38.266Z,1013.65
2018-08-06T06:24:46.905Z,1013.66
2018-08-06T06:25:55.823Z,1013.64
2018-08-06T06:27:04.471Z,1013.61
2018-08-06T06:28:13.122Z,1013.61
2018-08-06T06:29:21.760Z,1013.59
2018-08-06T06:30:30.669Z,1013.61
2018-08-06T06:31:39.320Z,1013.63
2018-08-06T06:32:48.231Z,1013.6
2018-08-06T06:33:56.875Z,1013.56
2018-08-06T06:35:05.528Z,1013.58
2018-08-06T06:36:14.173Z,1013.57
2018-08-06T06:37:22.817Z,1013.56
2018-08-06T06:38:31.469Z,1013.57
2018-08-06T06:39:40.121Z,1013.57
2018-08-06T06:40:48.761Z,1013.58
2018-08-06T06:41:57.434Z,1013.59
2018-08-06T06:43:06.091Z,1013.58
2018-08-06T06:44:14.740Z,1013.6
2018-08-06T06:45:23.389Z,1013.63
2018-08-06T06:46:32.036Z,1013.62
2018-08-06T06:47:40.962Z,1013.61
2018-08-06T06:48:49.957Z,1013.57
2018-08-06T06:49:58.877Z,1013.58
2018-08-06T06:51:07.517Z,1013.57
2018-08-06T06:52:16.169Z,1013.58
2018-08-06T06:53:24.817Z,1013.63
2018-08-06T06:54:33.569Z,1013.61
2018-08-06T06:55:42.600Z,1013.62
2018-08-06T06:56:51.515Z,1013.65
2018-08-06T06:58:00.434Z,1013.62
2018-08-06T06:59:09.079Z,1013.64
2018-08-06T07:00:17.730Z,1013.59
2018-08-06T07:01:26.371Z,1013.63
2018-08-06T07:02:35.018Z,1013.62
2018-08-06T07:03:43.664Z,1013.68
2018-08-06T07:04:52.323Z,1013.63
2018-08-06T07:06:00.957Z,1013.66
2018-08-06T07:07:09.609Z,1013.69
2018-08-06T07:08:18.257Z,1013.7
2018-08-06T07:09:26.907Z,1013.7
2018-08-06T07:10:35.552Z,1013.67
2018-08-06T07:11:44.200Z,1013.69
2018-08-06T07:12:52.843Z,1013.64
2018-08-06T07:14:01.529Z,1013.65
2018-08-06T07:15:10.142Z,1013.64
2018-08-06T07:16:18.791Z,1013.64
2018-08-06T07:17:27.440Z,1013.6
2018-08-06T07:18:36.085Z,1013.61
2018-08-06T07:19:44.739Z,1013.6
2018-08-06T07:20:53.651Z,1013.55
2018-08-06T07:22:02.565Z,1013.52
2018-08-06T07:23:11.203Z,1013.5
2018-08-06T07:24:20.124Z,1013.5
2018-08-06T07:25:28.771Z,1013.52
2018-08-06T07:26:37.423Z,1013.5
2018-08-06T07:27:46.062Z,1013.49
2018-08-06T07:28:54.975Z,1013.46
2018-08-06T07:30:03.638Z,1013.45
2018-08-06T07:31:12.288Z,1013.45
2018-08-06T07:32:20.938Z,1013.44
2018-08-06T07:33:29.576Z,1013.4
2018-08-06T07:34:38.230Z,1013.4
2018-08-06T07:35:46.873Z,1013.43
2018-08-06T07:36:55.576Z,1013.42
2018-08-06T07:38:04.598Z,1013.45
2018-08-06T07:39:13.255Z,1013.45
2018-08-06T07:40:21.902Z,1013.42
2018-08-06T07:41:30.556Z,1013.4
2018-08-06T07:42:39.197Z,1013.39
2018-08-06T07:43:47.848Z,1013.33
2018-08-06T07:44:56.762Z,1013.36
2018-08-06T07:46:05.417Z,1013.35
2018-08-06T07:47:14.063Z,1013.37
2018-08-06T07:48:22.706Z,1013.34
2018-08-06T07:49:31.405Z,1013.32
2018-08-06T07:50:40.406Z,1013.33
2018-08-06T07:51:49.121Z,1013.33
2018-08-06T07:52:57.767Z,1013.31
2018-08-06T07:54:07.224Z,1013.33
2018-08-06T07:55:16.434Z,1013.34
2018-08-06T07:56:25.090Z,1013.36
2018-08-06T07:57:33.737Z,1013.4
2018-08-06T07:58:42.394Z,1013.39
2018-08-06T07:59:51.169Z,1013.4
2018-08-06T08:00:59.689Z,1013.31
2018-08-06T08:02:08.341Z,1013.34
2018-08-06T08:03:16.992Z,1013.32
2018-08-06T08:04:25.631Z,1013.27
2018-08-06T08:05:34.283Z,1013.29
2018-08-06T08:06:43.141Z,1013.28
2018-08-06T08:07:51.794Z,1013.24
2018-08-06T08:09:00.446Z,1013.22
2018-08-06T08:10:09.153Z,1013.2
2018-08-06T08:11:18.733Z,1013.2
2018-08-06T08:12:27.470Z,1013.19
2018-08-06T08:13:36.169Z,1013.14
2018-08-06T08:14:45.095Z,1013.15
2018-08-06T08:15:53.886Z,1013.04
2018-08-06T08:17:03.248Z,1013.04
2018-08-06T08:18:12.053Z,1013.01
2018-08-06T08:19:20.858Z,1013
2018-08-06T08:20:29.739Z,1012.95
2018-08-06T08:21:38.508Z,1012.95
2018-08-06T08:22:47.632Z,1012.96
2018-08-06T08:23:56.367Z,1012.96
2018-08-06T08:25:05.021Z,1013
2018-08-06T08:26:13.681Z,1013.02
2018-08-06T08:27:22.332Z,1012.98
2018-08-06T08:28:30.973Z,1012.98
2018-08-06T08:29:39.629Z,1012.96
2018-08-06T08:30:48.274Z,1012.94
2018-08-06T08:31:57.500Z,1012.94
2018-08-06T08:33:06.127Z,1012.97
2018-08-06T08:34:14.783Z,1012.94
2018-08-06T08:35:23.433Z,1012.95
2018-08-06T08:36:32.091Z,1012.94
2018-08-06T08:37:40.732Z,1012.94
2018-08-06T08:38:49.383Z,1012.92
2018-08-06T08:39:58.032Z,1012.94
2018-08-06T08:41:06.692Z,1012.95
2018-08-06T08:42:15.609Z,1012.92
2018-08-06T08:43:24.249Z,1012.92
2018-08-06T08:44:32.900Z,1012.91
2018-08-06T08:45:41.971Z,1012.87
2018-08-06T08:46:50.529Z,1012.87
2018-08-06T08:47:59.175Z,1012.83
2018-08-06T08:49:08.097Z,1012.82
2018-08-06T08:50:16.740Z,1012.83
2018-08-06T08:51:25.660Z,1012.81
2018-08-06T08:52:34.309Z,1012.81
2018-08-06T08:53:43.575Z,1012.84
2018-08-06T08:54:53.471Z,1012.83
2018-08-06T08:56:02.136Z,1012.84
2018-08-06T08:57:10.816Z,1012.81
2018-08-06T08:58:19.468Z,1012.78
2018-08-06T08:59:28.188Z,1012.79
2018-08-06T09:00:36.833Z,1012.75
2018-08-06T09:01:45.490Z,1012.73
2018-08-06T09:02:54.406Z,1012.8
2018-08-06T09:04:03.322Z,1012.79
2018-08-06T09:05:11.965Z,1012.82
2018-08-06T09:06:20.886Z,1012.79
2018-08-06T09:07:29.532Z,1012.79
2018-08-06T09:08:38.193Z,1012.74
2018-08-06T09:09:46.836Z,1012.75
2018-08-06T09:10:55.499Z,1012.67
2018-08-06T09:12:04.145Z,1012.65
2018-08-06T09:13:12.804Z,1012.66
2018-08-06T09:14:21.445Z,1012.66
2018-08-06T09:15:30.364Z,1012.7
2018-08-06T09:16:39.013Z,1012.66
2018-08-06T09:17:47.670Z,1012.61
2018-08-06T09:18:56.318Z,1012.61
2018-08-06T09:20:04.971Z,1012.58
2018-08-06T09:21:13.692Z,1012.61
2018-08-06T09:22:22.268Z,1012.59
2018-08-06T09:23:31.187Z,1012.59
2018-08-06T09:24:39.836Z,1012.61
2018-08-06T09:25:48.490Z,1012.65
2018-08-06T09:26:57.408Z,1012.63
2018-08-06T09:28:06.065Z,1012.6
2018-08-06T09:29:14.715Z,1012.57
2018-08-06T09:30:23.365Z,1012.6
2018-08-06T09:31:32.012Z,1012.57
2018-08-06T09:32:40.668Z,1012.58
2018-08-06T09:33:49.321Z,1012.57
2018-08-06T09:34:58.581Z,1012.55
2018-08-06T09:36:07.227Z,1012.54
2018-08-06T09:37:15.883Z,1012.54
2018-08-06T09:38:24.538Z,1012.5
2018-08-06T09:39:33.189Z,1012.5
2018-08-06T09:40:41.961Z,1012.46
2018-08-06T09:41:50.488Z,1012.48
2018-08-06T09:42:59.142Z,1012.49
2018-08-06T09:44:08.055Z,1012.46
2018-08-06T09:45:16.713Z,1012.48
2018-08-06T09:46:25.358Z,1012.49
2018-08-06T09:47:34.011Z,1012.47
2018-08-06T09:48:42.704Z,1012.41
2018-08-06T09:49:51.319Z,1012.42
2018-08-06T09:50:59.965Z,1012.38
2018-08-06T09:52:09.929Z,1012.39
2018-08-06T09:53:22.906Z,1012.36
2018-08-06T09:54:32.101Z,1012.38
2018-08-06T09:55:40.750Z,1012.34
2018-08-06T09:56:49.404Z,1012.3
2018-08-06T09:57:58.054Z,1012.32
2018-08-06T09:59:06.974Z,1012.27
2018-08-06T10:00:15.631Z,1012.22
2018-08-06T10:01:24.810Z,1012.17
2018-08-06T10:02:33.724Z,1012.15
2018-08-06T10:03:42.371Z,1012.16
2018-08-06T10:04:51.040Z,1012.18
2018-08-06T10:05:59.951Z,1012.18
2018-08-06T10:07:08.859Z,1012.15
2018-08-06T10:08:17.507Z,1012.12
2018-08-06T10:09:26.179Z,1012.1
2018-08-06T10:10:35.080Z,1012.07
2018-08-06T10:11:43.735Z,1012.02
2018-08-06T10:12:52.383Z,1012.01
2018-08-06T10:14:01.037Z,1011.98
2018-08-06T10:15:09.691Z,1011.99
2018-08-06T10:16:18.345Z,1011.99
2018-08-06T10:17:27.272Z,1011.98
2018-08-06T10:18:35.910Z,1011.97
2018-08-06T10:19:44.710Z,1011.99
2018-08-06T10:20:53.214Z,1011.96
2018-08-06T10:22:01.882Z,1011.97
2018-08-06T10:23:10.522Z,1011.94
2018-08-06T10:24:19.452Z,1011.91
2018-08-06T10:25:28.102Z,1011.86
2018-08-06T10:26:36.762Z,1011.88
2018-08-06T10:27:45.667Z,1011.84
2018-08-06T10:28:54.322Z,1011.82
2018-08-06T10:30:02.974Z,1011.82
2018-08-06T10:31:11.634Z,1011.8
2018-08-06T10:32:20.282Z,1011.78
2018-08-06T10:33:28.962Z,1011.76
2018-08-06T10:34:37.614Z,1011.71
2018-08-06T10:35:46.265Z,1011.68
2018-08-06T10:36:55.193Z,1011.68
2018-08-06T10:38:03.835Z,1011.68
2018-08-06T10:39:12.977Z,1011.67
2018-08-06T10:40:21.880Z,1011.64
2018-08-06T10:41:30.845Z,1011.57
2018-08-06T10:42:39.463Z,1011.56
2018-08-06T10:43:48.089Z,1011.53
2018-08-06T10:44:56.704Z,1011.54
2018-08-06T10:46:05.322Z,1011.48
2018-08-06T10:47:13.943Z,1011.49
2018-08-06T10:48:22.688Z,1011.5
2018-08-06T10:49:31.589Z,1011.48
2018-08-06T10:50:40.207Z,1011.45
2018-08-06T10:51:48.828Z,1011.45
2018-08-06T10:52:57.453Z,1011.44
2018-08-06T10:54:06.590Z,1011.43
2018-08-06T10:55:15.210Z,1011.41
2018-08-06T10:56:23.833Z,1011.38
2018-08-06T10:57:32.711Z,1011.37
2018-08-06T10:58:41.328Z,1011.38
2018-08-06T10:59:49.950Z,1011.36
2018-08-06T11:00:58.570Z,1011.39
2018-08-06T11:02:07.190Z,1011.36
2018-08-06T11:03:15.813Z,1011.34
2018-08-06T11:04:24.428Z,1011.36
2018-08-06T11:05:33.047Z,1011.3
2018-08-06T11:06:41.809Z,1011.31
2018-08-06T11:07:50.564Z,1011.31
2018-08-06T11:08:59.205Z,1011.31
2018-08-06T11:10:08.088Z,1011.29
2018-08-06T11:11:16.725Z,1011.29
2018-08-06T11:12:25.326Z,1011.25
2018-08-06T11:13:33.947Z,1011.2
2018-08-06T11:14:42.569Z,1011.23
2018-08-06T11:15:51.184Z,1011.18
2018-08-06T11:16:59.809Z,1011.18
2018-08-06T11:18:08.679Z,1011.18
2018-08-06T11:19:17.301Z,1011.19
2018-08-06T11:20:25.924Z,1011.13
2018-08-06T11:21:35.159Z,1011.16
2018-08-06T11:22:43.772Z,1011.11
2018-08-06T11:23:52.654Z,1011.14
2018-08-06T11:25:01.273Z,1011.15
2018-08-06T11:26:09.897Z,1011.1
2018-08-06T11:27:18.516Z,1011.13
2018-08-06T11:28:27.188Z,1011.11
2018-08-06T11:29:35.752Z,1011.04
2018-08-06T11:30:44.370Z,1011.09
2018-08-06T11:31:52.997Z,1011.03
2018-08-06T11:33:01.616Z,1010.97
2018-08-06T11:34:10.240Z,1010.95
2018-08-06T11:35:19.113Z,1010.96
2018-08-06T11:36:27.740Z,1010.98
2018-08-06T11:37:36.615Z,1010.97
2018-08-06T11:38:45.238Z,1010.94
2018-08-06T11:39:53.853Z,1010.89
2018-08-06T11:41:02.478Z,1010.89
2018-08-06T11:42:11.098Z,1010.86
2018-08-06T11:43:19.978Z,1010.86
2018-08-06T11:44:28.594Z,1010.87
2018-08-06T11:45:37.216Z,1010.82
2018-08-06T11:46:45.837Z,1010.8
2018-08-06T11:47:54.458Z,1010.83
2018-08-06T11:49:03.339Z,1010.79
2018-08-06T11:50:11.960Z,1010.74
2018-08-06T11:51:20.840Z,1010.72
2018-08-06T11:52:29.457Z,1010.73
2018-08-06T11:53:38.091Z,1010.74
2018-08-06T11:54:46.962Z,1010.69
2018-08-06T11:55:55.845Z,1010.71
2018-08-06T11:57:04.463Z,1010.71
2018-08-06T11:58:13.088Z,1010.69
2018-08-06T11:59:21.962Z,1010.69
2018-08-06T12:00:30.584Z,1010.66
2018-08-06T12:01:39.202Z,1010.65
2018-08-06T12:02:48.103Z,1010.65
2018-08-06T12:03:56.723Z,1010.64
2018-08-06T12:05:05.346Z,1010.58
2018-08-06T12:06:13.964Z,1010.59
2018-08-06T12:07:22.585Z,1010.62
2018-08-06T12:08:31.510Z,1010.56
2018-08-06T12:09:40.096Z,1010.6
2018-08-06T12:10:48.723Z,1010.61
2018-08-06T12:11:57.604Z,1010.53
2018-08-06T12:13:06.483Z,1010.52
2018-08-06T12:14:15.108Z,1010.52
2018-08-06T12:15:23.729Z,1010.55
2018-08-06T12:16:32.352Z,1010.54
2018-08-06T12:17:40.981Z,1010.52
2018-08-06T12:18:49.861Z,1010.53
2018-08-06T12:19:58.480Z,1010.52
2018-08-06T12:21:07.105Z,1010.53
2018-08-06T12:22:15.723Z,1010.52
2018-08-06T12:23:24.341Z,1010.51
2018-08-06T12:24:32.959Z,1010.51
2018-08-06T12:25:41.581Z,1010.5
2018-08-06T12:26:50.584Z,1010.49
2018-08-06T12:27:59.202Z,1010.5
2018-08-06T12:29:07.826Z,1010.52
2018-08-06T12:30:16.703Z,1010.51
2018-08-06T12:31:25.617Z,1010.49
2018-08-06T12:32:34.207Z,1010.51
2018-08-06T12:33:42.831Z,1010.5
2018-08-06T12:34:51.447Z,1010.48
2018-08-06T12:36:00.072Z,1010.47
2018-08-06T12:37:08.691Z,1010.44
2018-08-06T12:38:17.375Z,1010.41
2018-08-06T12:39:25.928Z,1010.4
2018-08-06T12:40:34.551Z,1010.4
2018-08-06T12:41:43.174Z,1010.41
2018-08-06T12:42:51.800Z,1010.39
2018-08-06T12:44:00.426Z,1010.41
2018-08-06T12:45:09.309Z,1010.36
2018-08-06T12:46:18.502Z,1010.3
2018-08-06T12:47:27.078Z,1010.3
2018-08-06T12:48:35.701Z,1010.27
2018-08-06T12:49:44.316Z,1010.27
2018-08-06T12:50:52.943Z,1010.26
2018-08-06T12:52:01.563Z,1010.25
2018-08-06T12:53:10.188Z,1010.24
2018-08-06T12:54:18.810Z,1010.22
2018-08-06T12:55:27.456Z,1010.21
2018-08-06T12:56:36.121Z,1010.2
2018-08-06T12:57:44.829Z,1010.19
2018-08-06T12:58:53.708Z,1010.15
2018-08-06T13:00:02.337Z,1010.15
2018-08-06T13:01:10.956Z,1010.2
2018-08-06T13:02:19.576Z,1010.13
2018-08-06T13:03:28.256Z,1010.16
2018-08-06T13:04:36.917Z,1010.15
2018-08-06T13:05:45.551Z,1010.07
2018-08-06T13:06:54.239Z,1010.09
2018-08-06T13:08:02.891Z,1010.12
2018-08-06T13:09:11.509Z,1010.09
2018-08-06T13:10:20.138Z,1010.11
2018-08-06T13:11:28.757Z,1010.09
2018-08-06T13:12:37.378Z,1010.1
2018-08-06T13:13:46.000Z,1010.06
2018-08-06T13:14:54.624Z,1010.03
2018-08-06T13:16:03.245Z,1009.99
2018-08-06T13:17:11.866Z,1009.95
2018-08-06T13:18:20.497Z,1009.91
2018-08-06T13:19:29.187Z,1009.9
2018-08-06T13:20:37.839Z,1009.92
2018-08-06T13:21:46.459Z,1009.92
2018-08-06T13:22:55.344Z,1009.9
2018-08-06T13:24:03.988Z,1009.91
2018-08-06T13:25:12.635Z,1009.87
2018-08-06T13:26:21.570Z,1009.89
2018-08-06T13:27:30.192Z,1009.87
2018-08-06T13:28:39.084Z,1009.88
2018-08-06T13:29:47.706Z,1009.82
2018-08-06T13:30:56.591Z,1009.82
2018-08-06T13:32:05.215Z,1009.82
2018-08-06T13:33:13.837Z,1009.82
2018-08-06T13:34:22.459Z,1009.81
2018-08-06T13:35:31.080Z,1009.75
2018-08-06T13:36:39.758Z,1009.76
2018-08-06T13:37:49.148Z,1009.7
2018-08-06T13:38:57.769Z,1009.68
2018-08-06T13:40:06.394Z,1009.68
2018-08-06T13:41:15.277Z,1009.67
2018-08-06T13:42:23.902Z,1009.64
2018-08-06T13:43:32.522Z,1009.59
2018-08-06T13:44:41.405Z,1009.6
2018-08-06T13:45:50.030Z,1009.56
2018-08-06T13:46:58.709Z,1009.47
2018-08-06T13:48:07.274Z,1009.41
2018-08-06T13:49:15.899Z,1009.46
2018-08-06T13:50:24.520Z,1009.46
2018-08-06T13:51:33.145Z,1009.43
2018-08-06T13:52:41.788Z,1009.45
2018-08-06T13:53:50.509Z,1009.42